sensor_id;sensor_type;location;lat;lon;timestamp;temperature;humidity
19920;DHT22;10122;50.074;19.920;2023-12-22T17:57:25;5.30;99.90
19920;DHT22;10122;50.074;19.920;2023-12-22T17:59:50;5.30;99.90
19920;DHT22;10122;50.074;19.920;2023-12-22T18:02:16;5.40;99.90
19920;DHT22;10122;50.074;19.920;2023-12-22T18:04:43;5.30;99.90
19920;DHT22;10122;50.074;19.920;2023-12-22T18:07:09;5.10;99.90
19920;DHT22;10122;50.074;19.920;2023-12-22T18:09:38;5.10;99.90
19920;DHT22;10122;50.074;19.920;2023-12-22T18:12:05;4.90;99.90
19920;DHT22;10122;50.074;19.920;2023-12-22T18:14:31;4.90;99.90
19920;DHT22;10122;50.074;19.920;2023-12-22T18:16:56;4.90;99.90
19920;DHT22;10122;50.074;19.920;2023-12-22T18:19:22;4.80;99.90
19920;DHT22;10122;50.074;19.920;2023-12-22T18:21:47;5.00;99.90
19920;DHT22;10122;50.074;19.920;2023-12-22T18:24:13;5.20;99.90
19920;DHT22;10122;50.074;19.920;2023-12-22T18:26:39;5.20;99.90
19920;DHT22;10122;50.074;19.920;2023-12-22T18:29:04;5.10;99.90
19920;DHT22;10122;50.074;19.920;2023-12-22T18:31:30;5.00;99.90
19920;DHT22;10122;50.074;19.920;2023-12-22T18:33:56;4.90;99.90
19920;DHT22;10122;50.074;19.920;2023-12-22T18:36:22;4.80;99.90
19920;DHT22;10122;50.074;19.920;2023-12-22T18:38:47;4.80;99.90
19920;DHT22;10122;50.074;19.920;2023-12-22T18:41:13;4.80;99.90
19920;DHT22;10122;50.074;19.920;2023-12-22T18:43:39;4.70;99.90
19920;DHT22;10122;50.074;19.920;2023-12-22T18:46:05;4.70;99.90
19920;DHT22;10122;50.074;19.920;2023-12-22T18:48:31;4.70;99.90
19920;DHT22;10122;50.074;19.920;2023-12-22T18:50:57;4.70;99.90
19920;DHT22;10122;50.074;19.920;2023-12-22T18:53:22;4.60;99.90
19920;DHT22;10122;50.074;19.920;2023-12-22T18:55:48;4.60;99.90
19920;DHT22;10122;50.074;19.920;2023-12-22T18:58:14;4.60;99.90
19920;DHT22;10122;50.074;19.920;2023-12-22T19:00:44;4.50;99.90
19920;DHT22;10122;50.074;19.920;2023-12-22T19:03:09;4.30;99.90
19920;DHT22;10122;50.074;19.920;2023-12-22T19:05:35;4.30;99.90
19920;DHT22;10122;50.074;19.920;2023-12-22T19:08:01;4.30;99.90
19920;DHT22;10122;50.074;19.920;2023-12-22T19:10:27;4.30;99.90
19920;DHT22;10122;50.074;19.920;2023-12-22T19:12:53;4.20;99.90
19920;DHT22;10122;50.074;19.920;2023-12-22T19:15:18;4.20;99.90
19920;DHT22;10122;50.074;19.920;2023-12-22T19:17:44;4.20;99.90
19920;DHT22;10122;50.074;19.920;2023-12-22T19:20:11;4.20;99.90
19920;DHT22;10122;50.074;19.920;2023-12-22T19:22:37;4.10;99.90
19920;DHT22;10122;50.074;19.920;2023-12-22T19:25:03;4.10;99.90
19920;DHT22;10122;50.074;19.920;2023-12-22T19:27:29;4.40;99.90
19920;DHT22;10122;50.074;19.920;2023-12-22T19:29:56;4.80;99.90
19920;DHT22;10122;50.074;19.920;2023-12-22T19:32:23;4.90;99.90
19920;DHT22;10122;50.074;19.920;2023-12-22T19:34:48;4.90;99.90
19920;DHT22;10122;50.074;19.920;2023-12-22T19:37:14;4.80;99.90
19920;DHT22;10122;50.074;19.920;2023-12-22T19:39:43;4.60;99.90
19920;DHT22;10122;50.074;19.920;2023-12-22T19:42:09;4.60;99.90
19920;DHT22;10122;50.074;19.920;2023-12-22T19:44:34;4.80;99.90
19920;DHT22;10122;50.074;19.920;2023-12-22T19:47:01;4.70;99.90
19920;DHT22;10122;50.074;19.920;2023-12-22T19:49:26;4.50;99.90
19920;DHT22;10122;50.074;19.920;2023-12-22T19:51:53;4.40;99.90
19920;DHT22;10122;50.074;19.920;2023-12-22T19:54:18;4.20;99.90
19920;DHT22;10122;50.074;19.920;2023-12-22T19:56:44;4.30;99.90
19920;DHT22;10122;50.074;19.920;2023-12-22T19:59:10;4.30;99.90
19920;DHT22;10122;50.074;19.920;2023-12-22T20:01:36;4.30;99.90
19920;DHT22;10122;50.074;19.920;2023-12-22T20:04:01;4.30;99.90
19920;DHT22;10122;50.074;19.920;2023-12-22T20:06:27;4.20;99.90
19920;DHT22;10122;50.074;19.920;2023-12-22T20:08:55;4.20;99.90
19920;DHT22;10122;50.074;19.920;2023-12-22T20:11:20;4.20;99.90
19920;DHT22;10122;50.074;19.920;2023-12-22T20:13:51;4.20;99.90
19920;DHT22;10122;50.074;19.920;2023-12-22T20:16:17;4.20;99.90
19920;DHT22;10122;50.074;19.920;2023-12-22T20:18:45;4.20;99.90
19920;DHT22;10122;50.074;19.920;2023-12-22T20:21:12;4.20;99.90
19920;DHT22;10122;50.074;19.920;2023-12-22T20:23:38;4.20;99.90
19920;DHT22;10122;50.074;19.920;2023-12-22T20:26:03;4.20;99.90
19920;DHT22;10122;50.074;19.920;2023-12-22T20:28:29;4.10;99.90
19920;DHT22;10122;50.074;19.920;2023-12-22T20:30:55;4.10;99.90
19920;DHT22;10122;50.074;19.920;2023-12-22T20:33:21;4.10;99.90
19920;DHT22;10122;50.074;19.920;2023-12-22T20:35:46;4.10;99.90
19920;DHT22;10122;50.074;19.920;2023-12-22T20:38:13;4.10;99.90
19920;DHT22;10122;50.074;19.920;2023-12-22T20:40:39;4.10;99.90
19920;DHT22;10122;50.074;19.920;2023-12-22T20:43:05;4.10;99.90
19920;DHT22;10122;50.074;19.920;2023-12-22T20:45:30;4.10;99.90
19920;DHT22;10122;50.074;19.920;2023-12-22T20:47:56;4.10;99.90
19920;DHT22;10122;50.074;19.920;2023-12-22T20:50:22;4.10;99.90
19920;DHT22;10122;50.074;19.920;2023-12-22T20:52:48;4.20;99.90
19920;DHT22;10122;50.074;19.920;2023-12-22T20:55:22;4.20;99.90
19920;DHT22;10122;50.074;19.920;2023-12-22T20:57:48;4.20;99.90
19920;DHT22;10122;50.074;19.920;2023-12-22T21:00:15;4.20;99.90
19920;DHT22;10122;50.074;19.920;2023-12-22T21:02:41;4.60;99.90
19920;DHT22;10122;50.074;19.920;2023-12-22T21:05:08;4.80;99.90
19920;DHT22;10122;50.074;19.920;2023-12-22T21:07:38;4.80;99.90
19920;DHT22;10122;50.074;19.920;2023-12-22T21:10:08;4.80;99.90
19920;DHT22;10122;50.074;19.920;2023-12-22T21:12:34;4.70;99.90
19920;DHT22;10122;50.074;19.920;2023-12-22T21:15:00;4.60;99.90
19920;DHT22;10122;50.074;19.920;2023-12-22T21:17:25;4.60;99.90
19920;DHT22;10122;50.074;19.920;2023-12-22T21:19:51;4.50;99.90
19920;DHT22;10122;50.074;19.920;2023-12-22T21:22:18;4.50;99.90
19920;DHT22;10122;50.074;19.920;2023-12-22T21:24:43;4.50;99.90
19920;DHT22;10122;50.074;19.920;2023-12-22T21:27:09;4.40;99.90
19920;DHT22;10122;50.074;19.920;2023-12-22T21:29:38;4.40;99.90
19920;DHT22;10122;50.074;19.920;2023-12-22T21:32:05;4.30;99.90
19920;DHT22;10122;50.074;19.920;2023-12-22T21:34:31;4.30;99.90
19920;DHT22;10122;50.074;19.920;2023-12-22T21:36:56;4.30;99.90
19920;DHT22;10122;50.074;19.920;2023-12-22T21:39:22;4.30;99.90
19920;DHT22;10122;50.074;19.920;2023-12-22T21:41:51;4.30;99.90
19920;DHT22;10122;50.074;19.920;2023-12-22T21:44:18;4.30;99.90
19920;DHT22;10122;50.074;19.920;2023-12-22T21:46:44;4.20;99.90
19920;DHT22;10122;50.074;19.920;2023-12-22T21:49:10;4.20;99.90
19920;DHT22;10122;50.074;19.920;2023-12-22T21:51:36;4.20;99.90
19920;DHT22;10122;50.074;19.920;2023-12-22T21:54:01;4.30;99.90
19920;DHT22;10122;50.074;19.920;2023-12-22T21:56:27;4.40;99.90
19920;DHT22;10122;50.074;19.920;2023-12-22T21:58:53;4.40;99.90
19920;DHT22;10122;50.074;19.920;2023-12-22T22:01:19;4.50;99.90
19920;DHT22;10122;50.074;19.920;2023-12-22T22:03:45;4.50;99.90
19920;DHT22;10122;50.074;19.920;2023-12-22T22:06:11;4.40;99.90
19920;DHT22;10122;50.074;19.920;2023-12-22T22:08:37;4.40;99.90
19920;DHT22;10122;50.074;19.920;2023-12-22T22:11:03;4.50;99.90
19920;DHT22;10122;50.074;19.920;2023-12-22T22:13:28;4.90;99.90
19920;DHT22;10122;50.074;19.920;2023-12-22T22:15:54;5.00;99.90
19920;DHT22;10122;50.074;19.920;2023-12-22T22:18:20;4.90;99.90
19920;DHT22;10122;50.074;19.920;2023-12-22T22:20:45;4.80;99.90
19920;DHT22;10122;50.074;19.920;2023-12-22T22:23:11;4.60;99.90
19920;DHT22;10122;50.074;19.920;2023-12-22T22:25:37;4.60;99.90
19920;DHT22;10122;50.074;19.920;2023-12-22T22:28:02;4.50;99.90
19920;DHT22;10122;50.074;19.920;2023-12-22T22:30:28;4.40;99.90
19920;DHT22;10122;50.074;19.920;2023-12-22T22:32:54;4.40;99.90
19920;DHT22;10122;50.074;19.920;2023-12-22T22:35:20;4.30;99.90
19920;DHT22;10122;50.074;19.920;2023-12-22T22:37:45;4.30;99.90
19920;DHT22;10122;50.074;19.920;2023-12-22T22:40:11;4.20;99.90
19920;DHT22;10122;50.074;19.920;2023-12-22T22:42:36;4.20;99.90
19920;DHT22;10122;50.074;19.920;2023-12-22T22:45:02;4.20;99.90
19920;DHT22;10122;50.074;19.920;2023-12-22T22:47:28;4.10;99.90
19920;DHT22;10122;50.074;19.920;2023-12-22T22:49:53;4.10;99.90
19920;DHT22;10122;50.074;19.920;2023-12-22T22:52:19;4.10;99.90
19920;DHT22;10122;50.074;19.920;2023-12-22T22:54:45;4.00;99.90
19920;DHT22;10122;50.074;19.920;2023-12-22T22:57:10;4.00;99.90
19920;DHT22;10122;50.074;19.920;2023-12-22T22:59:37;4.00;99.90
19920;DHT22;10122;50.074;19.920;2023-12-22T23:02:02;4.10;99.90
19920;DHT22;10122;50.074;19.920;2023-12-22T23:04:28;4.30;99.90
19920;DHT22;10122;50.074;19.920;2023-12-22T23:06:54;4.40;99.90
19920;DHT22;10122;50.074;19.920;2023-12-22T23:09:21;4.40;99.90
19920;DHT22;10122;50.074;19.920;2023-12-22T23:11:46;4.40;99.90
19920;DHT22;10122;50.074;19.920;2023-12-22T23:14:12;4.40;99.90
19920;DHT22;10122;50.074;19.920;2023-12-22T23:16:38;4.40;99.90
19920;DHT22;10122;50.074;19.920;2023-12-22T23:19:04;4.40;99.90
19920;DHT22;10122;50.074;19.920;2023-12-22T23:21:30;4.30;99.90
19920;DHT22;10122;50.074;19.920;2023-12-22T23:23:55;4.30;99.90
19920;DHT22;10122;50.074;19.920;2023-12-22T23:26:21;4.30;99.90
19920;DHT22;10122;50.074;19.920;2023-12-22T23:28:47;4.20;99.90
19920;DHT22;10122;50.074;19.920;2023-12-22T23:31:13;4.20;99.90
19920;DHT22;10122;50.074;19.920;2023-12-22T23:33:38;4.10;99.90
19920;DHT22;10122;50.074;19.920;2023-12-22T23:36:04;4.10;99.90
19920;DHT22;10122;50.074;19.920;2023-12-22T23:38:30;4.10;99.90
19920;DHT22;10122;50.074;19.920;2023-12-22T23:40:56;4.10;99.90
19920;DHT22;10122;50.074;19.920;2023-12-22T23:43:22;4.10;99.90
19920;DHT22;10122;50.074;19.920;2023-12-22T23:45:48;4.10;99.90
19920;DHT22;10122;50.074;19.920;2023-12-22T23:48:14;4.10;99.90
19920;DHT22;10122;50.074;19.920;2023-12-22T23:50:40;4.00;99.90
19920;DHT22;10122;50.074;19.920;2023-12-22T23:53:06;4.00;99.90
19920;DHT22;10122;50.074;19.920;2023-12-22T23:55:31;4.00;99.90
19920;DHT22;10122;50.074;19.920;2023-12-22T23:57:57;4.00;99.90
